createdAt,value
2023-04-20T00:00:30.016Z,5.90
2023-04-20T00:01:29.931Z,7.40
2023-04-20T00:02:30.186Z,3.90
2023-04-20T00:03:31.055Z,5.50
2023-04-20T00:04:29.926Z,5.40
2023-04-20T00:05:29.986Z,5.30
2023-04-20T00:06:29.956Z,5.30
2023-04-20T00:07:30.711Z,6.00
2023-04-20T00:08:30.660Z,5.80
2023-04-20T00:09:30.946Z,7.00
2023-04-20T00:10:30.720Z,4.60
2023-04-20T00:11:29.825Z,5.30
2023-04-20T00:12:29.939Z,5.80
2023-04-20T00:13:29.762Z,7.20
2023-04-20T00:14:29.819Z,7.80
2023-04-20T00:15:29.786Z,5.60
2023-04-20T00:16:30.149Z,6.20
2023-04-20T00:17:29.854Z,5.20
2023-04-20T00:18:29.750Z,4.80
2023-04-20T00:19:29.748Z,6.40
2023-04-20T00:20:29.724Z,7.00
2023-04-20T00:21:29.774Z,6.20
2023-04-20T00:22:30.410Z,6.00
2023-04-20T00:23:30.096Z,8.10
2023-04-20T00:24:29.616Z,6.30
2023-04-20T00:25:29.624Z,7.30
2023-04-20T00:26:29.640Z,4.30
2023-04-20T00:27:29.623Z,7.00
2023-04-20T00:28:29.659Z,5.70
2023-04-20T00:29:29.561Z,6.90
2023-04-20T00:30:29.569Z,4.90
2023-04-20T00:31:29.599Z,7.50
2023-04-20T00:32:29.681Z,5.80
2023-04-20T00:33:29.488Z,6.60
2023-04-20T00:34:29.538Z,6.50
2023-04-20T00:35:29.523Z,7.00
2023-04-20T00:36:29.518Z,6.40
2023-04-20T00:37:29.463Z,7.50
2023-04-20T00:38:29.671Z,7.00
2023-04-20T00:39:29.582Z,9.40
2023-04-20T00:40:29.385Z,5.40
2023-04-20T00:41:29.385Z,6.90
2023-04-20T00:42:29.357Z,9.50
2023-04-20T00:43:29.399Z,7.70
2023-04-20T00:44:29.328Z,8.40
2023-04-20T00:45:29.332Z,8.90
2023-04-20T00:46:29.388Z,7.70
2023-04-20T00:47:29.355Z,7.20
2023-04-20T00:48:29.279Z,6.50
2023-04-20T00:49:29.279Z,10.90
2023-04-20T00:50:29.271Z,9.50
2023-04-20T00:51:29.278Z,13.00
2023-04-20T00:52:29.304Z,12.40
2023-04-20T00:53:29.198Z,12.50
2023-04-20T00:54:29.210Z,6.40
2023-04-20T00:55:29.234Z,7.10
2023-04-20T00:56:30.143Z,9.90
2023-04-20T00:57:30.013Z,8.00
2023-04-20T00:58:29.156Z,14.80
2023-04-20T00:59:29.128Z,11.80
2023-04-20T01:00:29.164Z,8.80
2023-04-20T01:01:30.012Z,8.10
2023-04-20T01:02:29.212Z,8.80
2023-04-20T01:03:29.152Z,10.20
2023-04-20T01:04:29.328Z,10.50
2023-04-20T01:05:29.065Z,10.00
2023-04-20T01:06:29.619Z,9.60
2023-04-20T01:07:29.125Z,10.40
2023-04-20T01:08:29.038Z,12.90
2023-04-20T01:09:29.039Z,11.00
2023-04-20T01:10:29.051Z,8.80
2023-04-20T01:11:29.020Z,10.40
2023-04-20T01:12:28.957Z,10.70
2023-04-20T01:13:28.972Z,9.40
2023-04-20T01:14:28.966Z,11.70
2023-04-20T01:15:28.936Z,10.70
2023-04-20T01:16:29.000Z,10.70
2023-04-20T01:17:29.026Z,10.50
2023-04-20T01:18:28.930Z,13.60
2023-04-20T01:19:29.551Z,11.90
2023-04-20T01:20:28.866Z,9.50
2023-04-20T01:21:29.777Z,10.10
2023-04-20T01:22:29.678Z,13.10
2023-04-20T01:23:29.575Z,12.40
2023-04-20T01:24:29.522Z,12.80
2023-04-20T01:25:29.631Z,9.40
2023-04-20T01:26:29.558Z,18.10
2023-04-20T01:27:29.534Z,10.60
2023-04-20T01:28:29.598Z,8.30
2023-04-20T01:29:29.541Z,10.70
2023-04-20T01:30:28.721Z,11.00
2023-04-20T01:31:29.567Z,11.70
2023-04-20T01:32:29.527Z,13.60
2023-04-20T01:33:29.538Z,9.00
2023-04-20T01:34:29.506Z,10.10
2023-04-20T01:35:29.478Z,11.60
2023-04-20T01:36:28.691Z,9.30
2023-04-20T01:37:28.608Z,10.00
2023-04-20T01:38:29.431Z,8.50
2023-04-20T01:39:29.566Z,10.30
2023-04-20T01:40:28.617Z,7.90
2023-04-20T01:41:28.614Z,10.80
2023-04-20T01:42:28.747Z,11.70
2023-04-20T01:43:28.534Z,7.80
2023-04-20T01:44:28.525Z,7.70
2023-04-20T01:45:28.520Z,10.00
2023-04-20T01:46:28.518Z,6.90
2023-04-20T01:47:28.910Z,10.20
2023-04-20T01:48:28.494Z,8.60
2023-04-20T01:49:28.585Z,10.40
2023-04-20T01:50:28.463Z,17.30
2023-04-20T01:51:28.404Z,10.90
2023-04-20T01:52:28.390Z,9.40
2023-04-20T01:53:28.420Z,8.70
2023-04-20T01:54:28.409Z,12.00
2023-04-20T01:55:28.369Z,8.50
2023-04-20T01:56:28.384Z,13.00
2023-04-20T01:57:28.340Z,9.50
2023-04-20T01:58:28.376Z,9.10
2023-04-20T01:59:28.347Z,15.10
2023-04-20T02:00:28.367Z,13.30
2023-04-20T02:01:28.475Z,15.40
2023-04-20T02:02:28.449Z,8.90
2023-04-20T02:03:28.501Z,12.30
2023-04-20T02:04:28.278Z,11.80
2023-04-20T02:05:28.267Z,7.40
2023-04-20T02:06:28.242Z,9.20
2023-04-20T02:07:28.287Z,11.00
2023-04-20T02:08:28.266Z,16.60
2023-04-20T02:09:28.189Z,12.70
2023-04-20T02:10:28.178Z,9.40
2023-04-20T02:11:28.179Z,13.20
2023-04-20T02:12:28.179Z,14.30
2023-04-20T02:13:28.166Z,11.80
2023-04-20T02:14:28.244Z,11.10
2023-04-20T02:15:28.089Z,12.50
2023-04-20T02:16:28.119Z,14.90
2023-04-20T02:17:28.145Z,14.50
2023-04-20T02:18:28.056Z,16.30
2023-04-20T02:19:28.051Z,22.50
2023-04-20T02:20:28.061Z,15.40
2023-04-20T02:21:28.081Z,20.50
2023-04-20T02:22:28.016Z,17.40
2023-04-20T02:23:27.942Z,14.10
2023-04-20T02:24:27.995Z,18.40
2023-04-20T02:25:27.932Z,17.00
2023-04-20T02:26:27.928Z,8.90
2023-04-20T02:27:28.803Z,16.20
2023-04-20T02:28:27.993Z,16.80
2023-04-20T02:29:27.952Z,12.00
2023-04-20T02:30:27.920Z,14.40
2023-04-20T02:31:27.995Z,20.70
2023-04-20T02:32:27.910Z,14.80
2023-04-20T02:33:27.852Z,15.60
2023-04-20T02:34:27.827Z,16.40
2023-04-20T02:35:27.874Z,13.10
2023-04-20T02:36:27.817Z,21.20
2023-04-20T02:37:27.889Z,20.10
2023-04-20T02:38:27.883Z,12.70
2023-04-20T02:39:27.896Z,13.50
2023-04-20T02:40:27.837Z,11.00
2023-04-20T02:41:27.733Z,11.50
2023-04-20T02:42:27.713Z,11.20
2023-04-20T02:43:27.754Z,16.80
2023-04-20T02:44:27.711Z,22.00
2023-04-20T02:45:27.707Z,13.80
2023-04-20T02:46:27.669Z,15.40
2023-04-20T02:47:28.463Z,15.90
2023-04-20T02:48:27.657Z,11.60
2023-04-20T02:49:27.780Z,14.40
2023-04-20T02:50:27.625Z,23.80
2023-04-20T02:51:27.736Z,10.50
2023-04-20T02:52:27.569Z,14.50
2023-04-20T02:53:27.568Z,18.80
2023-04-20T02:54:27.648Z,15.40
2023-04-20T02:55:27.578Z,8.00
2023-04-20T02:56:27.694Z,8.40
2023-04-20T02:57:27.656Z,7.80
2023-04-20T02:58:27.710Z,18.10
2023-04-20T02:59:27.659Z,12.10
2023-04-20T03:00:27.559Z,15.40
2023-04-20T03:01:27.703Z,10.50
2023-04-20T03:02:27.535Z,11.70
2023-04-20T03:03:27.660Z,11.70
2023-04-20T03:04:27.515Z,14.80
2023-04-20T03:05:27.771Z,19.60
2023-04-20T03:06:27.393Z,16.10
2023-04-20T03:07:27.412Z,16.40
2023-04-20T03:08:27.791Z,21.70
2023-04-20T03:09:27.500Z,19.50
2023-04-20T03:10:27.358Z,20.30
2023-04-20T03:11:27.315Z,13.50
2023-04-20T03:12:27.410Z,16.40
2023-04-20T03:13:27.398Z,18.50
2023-04-20T03:14:27.300Z,11.00
2023-04-20T03:15:27.289Z,17.40
2023-04-20T03:16:27.698Z,11.50
2023-04-20T03:17:27.290Z,11.80
2023-04-20T03:18:27.282Z,16.00
2023-04-20T03:19:27.250Z,19.60
2023-04-20T03:20:27.240Z,14.90
2023-04-20T03:21:27.281Z,14.90
2023-04-20T03:22:27.208Z,9.00
2023-04-20T03:23:27.163Z,18.60
2023-04-20T03:24:27.204Z,12.30
2023-04-20T03:25:28.103Z,16.70
2023-04-20T03:26:27.172Z,10.20
2023-04-20T03:27:27.089Z,12.90
2023-04-20T03:28:28.165Z,14.20
2023-04-20T03:29:27.035Z,13.80
2023-04-20T03:30:27.892Z,11.50
2023-04-20T03:31:27.088Z,8.00
2023-04-20T03:32:27.752Z,11.10
2023-04-20T03:33:27.021Z,12.40
2023-04-20T03:34:27.053Z,11.20
2023-04-20T03:35:27.716Z,12.40
2023-04-20T03:36:27.831Z,16.40
2023-04-20T03:37:27.762Z,15.10
2023-04-20T03:38:27.737Z,15.50
2023-04-20T03:39:27.775Z,21.90
2023-04-20T03:40:26.935Z,18.40
2023-04-20T03:41:26.887Z,9.90
2023-04-20T03:42:26.990Z,10.20
2023-04-20T03:43:26.892Z,12.20
2023-04-20T03:44:27.110Z,14.10
2023-04-20T03:45:27.231Z,15.40
2023-04-20T03:46:27.234Z,16.40
2023-04-20T03:47:26.846Z,40.50
2023-04-20T03:48:26.785Z,11.90
2023-04-20T03:49:27.398Z,11.40
2023-04-20T03:50:27.436Z,20.30
2023-04-20T03:51:26.781Z,19.40
2023-04-20T03:52:26.738Z,11.90
2023-04-20T03:53:26.847Z,13.10
2023-04-20T03:54:26.789Z,16.10
2023-04-20T03:55:26.762Z,12.30
2023-04-20T03:56:26.786Z,16.30
2023-04-20T03:57:26.689Z,15.50
2023-04-20T03:58:27.486Z,15.00
2023-04-20T03:59:26.869Z,15.90
2023-04-20T04:00:26.670Z,10.20
2023-04-20T04:01:26.681Z,19.60
2023-04-20T04:02:26.751Z,22.90
2023-04-20T04:03:26.765Z,20.00
2023-04-20T04:04:27.006Z,14.90
2023-04-20T04:05:26.705Z,13.50
2023-04-20T04:06:26.650Z,17.50
2023-04-20T04:07:26.532Z,12.80
2023-04-20T04:08:26.551Z,17.50
2023-04-20T04:09:26.495Z,19.30
2023-04-20T04:10:26.533Z,21.60
2023-04-20T04:11:26.480Z,15.20
2023-04-20T04:12:26.470Z,21.60
2023-04-20T04:13:26.424Z,15.30
2023-04-20T04:14:26.457Z,20.70
2023-04-20T04:15:26.420Z,26.50
2023-04-20T04:16:26.442Z,37.30
2023-04-20T04:17:26.399Z,14.70
2023-04-20T04:18:26.421Z,22.40
2023-04-20T04:19:26.339Z,15.00
2023-04-20T04:20:26.339Z,12.70
2023-04-20T04:21:26.367Z,13.70
2023-04-20T04:22:27.231Z,19.00
2023-04-20T04:23:26.307Z,20.60
2023-04-20T04:24:26.320Z,17.70
2023-04-20T04:25:26.275Z,18.00
2023-04-20T04:26:26.240Z,20.50
2023-04-20T04:27:26.232Z,26.90
2023-04-20T04:28:26.241Z,18.50
2023-04-20T04:29:26.232Z,19.20
2023-04-20T04:30:26.252Z,16.60
2023-04-20T04:31:26.243Z,16.00
2023-04-20T04:32:26.183Z,15.30
2023-04-20T04:33:26.202Z,24.40
2023-04-20T04:34:26.132Z,15.20
2023-04-20T04:35:26.524Z,19.60
2023-04-20T04:36:26.594Z,19.80
2023-04-20T04:37:26.103Z,18.50
2023-04-20T04:38:26.089Z,14.70
2023-04-20T04:39:26.135Z,15.30
2023-04-20T04:40:26.089Z,14.30
2023-04-20T04:41:26.165Z,16.00
2023-04-20T04:42:26.016Z,16.40
2023-04-20T04:43:26.011Z,15.50
2023-04-20T04:44:26.040Z,18.30
2023-04-20T04:45:25.995Z,26.10
2023-04-20T04:46:26.078Z,18.90
2023-04-20T04:47:26.129Z,35.00
2023-04-20T04:48:25.974Z,53.70
2023-04-20T04:49:25.947Z,25.50
2023-04-20T04:50:25.937Z,107.60
2023-04-20T04:51:25.923Z,26.40
2023-04-20T04:52:25.937Z,20.70
2023-04-20T04:53:26.673Z,31.70
2023-04-20T04:54:26.000Z,27.10
2023-04-20T04:55:25.969Z,22.30
2023-04-20T04:56:25.836Z,19.30
2023-04-20T04:57:26.695Z,27.70
2023-04-20T04:58:26.613Z,26.50
2023-04-20T04:59:25.781Z,25.20
2023-04-20T05:00:26.572Z,22.30
2023-04-20T05:01:26.551Z,35.40
2023-04-20T05:02:26.656Z,21.70
2023-04-20T05:03:26.704Z,27.10
2023-04-20T05:04:26.729Z,23.30
2023-04-20T05:05:26.501Z,28.40
2023-04-20T05:06:25.723Z,26.20
2023-04-20T05:07:25.813Z,18.50
2023-04-20T05:08:25.748Z,26.00
2023-04-20T05:09:25.763Z,23.10
2023-04-20T05:10:25.755Z,21.60
2023-04-20T05:11:25.874Z,38.60
2023-04-20T05:12:25.871Z,18.90
2023-04-20T05:13:25.972Z,29.40
2023-04-20T05:14:25.598Z,22.80
2023-04-20T05:15:25.610Z,42.00
2023-04-20T05:16:25.679Z,20.80
2023-04-20T05:17:25.617Z,21.40
2023-04-20T05:18:25.691Z,18.30
2023-04-20T05:19:25.545Z,21.50
2023-04-20T05:20:26.516Z,24.30
2023-04-20T05:21:25.582Z,20.10
2023-04-20T05:22:25.495Z,16.80
2023-04-20T05:23:25.498Z,35.70
2023-04-20T05:24:26.390Z,23.20
2023-04-20T05:25:25.494Z,21.20
2023-04-20T05:26:25.470Z,36.80
2023-04-20T05:27:25.444Z,21.80
2023-04-20T05:28:25.399Z,43.30
2023-04-20T05:29:26.161Z,23.50
2023-04-20T05:30:25.490Z,21.10
2023-04-20T05:31:26.209Z,30.00
2023-04-20T05:32:25.369Z,17.30
2023-04-20T05:33:25.335Z,28.10
2023-04-20T05:34:25.336Z,36.70
2023-04-20T05:35:25.519Z,33.40
2023-04-20T05:36:25.491Z,28.90
2023-04-20T05:37:25.326Z,26.30
2023-04-20T05:38:25.341Z,29.70
2023-04-20T05:39:25.256Z,26.00
2023-04-20T05:40:25.265Z,30.10
2023-04-20T05:41:25.264Z,29.40
2023-04-20T05:42:25.256Z,26.90
2023-04-20T05:43:25.267Z,26.20
2023-04-20T05:44:25.203Z,17.10
2023-04-20T05:45:25.185Z,26.30
2023-04-20T05:46:25.250Z,19.70
2023-04-20T05:47:25.183Z,31.90
2023-04-20T05:48:25.977Z,28.50
2023-04-20T05:49:25.092Z,32.40
2023-04-20T05:50:25.085Z,24.00
2023-04-20T05:51:25.097Z,21.20
2023-04-20T05:52:25.051Z,34.00
2023-04-20T05:53:25.043Z,19.10
2023-04-20T05:54:25.036Z,23.60
2023-04-20T05:55:25.051Z,32.10
2023-04-20T05:56:25.016Z,24.40
2023-04-20T05:57:25.008Z,34.10
2023-04-20T05:58:25.000Z,32.00
2023-04-20T05:59:24.968Z,31.10
2023-04-20T06:00:26.184Z,25.60
2023-04-20T06:01:24.993Z,32.70
2023-04-20T06:02:25.082Z,36.70
2023-04-20T06:03:25.157Z,28.00
2023-04-20T06:04:25.959Z,28.20
2023-04-20T06:05:25.622Z,29.70
2023-04-20T06:06:25.601Z,22.00
2023-04-20T06:07:25.513Z,25.70
2023-04-20T06:08:24.948Z,25.00
2023-04-20T06:09:24.949Z,25.90
2023-04-20T06:10:25.816Z,39.80
2023-04-20T06:11:24.983Z,28.80
2023-04-20T06:12:26.740Z,21.50
2023-04-20T06:13:25.127Z,35.90
2023-04-20T06:14:25.186Z,38.00
2023-04-20T06:15:24.942Z,25.60
2023-04-20T06:16:24.762Z,20.20
2023-04-20T06:17:25.674Z,21.80
2023-04-20T06:18:25.555Z,30.60
2023-04-20T06:19:25.466Z,23.00
2023-04-20T06:20:24.679Z,39.00
2023-04-20T06:21:24.755Z,26.00
2023-04-20T06:22:25.443Z,25.00
2023-04-20T06:23:24.666Z,20.10
2023-04-20T06:24:24.674Z,28.70
2023-04-20T06:25:24.676Z,25.90
2023-04-20T06:26:25.568Z,27.50
2023-04-20T06:27:25.468Z,37.00
2023-04-20T06:28:25.366Z,30.40
2023-04-20T06:29:24.567Z,26.20
2023-04-20T06:30:25.428Z,32.70
2023-04-20T06:31:24.835Z,25.00
2023-04-20T06:32:24.633Z,27.30
2023-04-20T06:33:24.660Z,24.20
2023-04-20T06:34:24.725Z,40.70
2023-04-20T06:35:24.695Z,20.30
2023-04-20T06:36:25.389Z,25.20
2023-04-20T06:37:24.492Z,25.80
2023-04-20T06:38:24.423Z,29.30
2023-04-20T06:39:24.468Z,29.00
2023-04-20T06:40:24.447Z,30.00
2023-04-20T06:41:25.154Z,27.10
2023-04-20T06:42:24.385Z,34.50
2023-04-20T06:43:25.213Z,33.60
2023-04-20T06:44:25.107Z,28.70
2023-04-20T06:45:25.275Z,33.60
2023-04-20T06:46:25.225Z,27.60
2023-04-20T06:47:25.092Z,29.90
2023-04-20T06:48:32.025Z,32.20
2023-04-20T06:49:25.679Z,39.20
2023-04-20T06:50:25.064Z,33.50
2023-04-20T06:51:24.681Z,41.10
2023-04-20T06:52:24.642Z,37.70
2023-04-20T06:53:24.810Z,30.30
2023-04-20T06:54:24.216Z,21.60
2023-04-20T06:55:25.075Z,46.50
2023-04-20T06:56:24.727Z,38.10
2023-04-20T06:57:24.777Z,35.30
2023-04-20T06:58:24.675Z,36.00
2023-04-20T06:59:24.726Z,25.90
2023-04-20T07:00:24.696Z,38.80
2023-04-20T07:01:24.744Z,44.70
2023-04-20T07:02:24.707Z,24.70
2023-04-20T07:03:24.946Z,20.20
2023-04-20T07:04:24.841Z,32.90
2023-04-20T07:05:24.735Z,25.60
2023-04-20T07:06:24.018Z,33.50
2023-04-20T07:07:24.044Z,28.50
2023-04-20T07:08:24.141Z,30.00
2023-04-20T07:09:24.131Z,32.80
2023-04-20T07:10:24.198Z,45.90
2023-04-20T07:11:24.292Z,46.10
2023-04-20T07:12:24.308Z,32.00
2023-04-20T07:13:24.387Z,31.50
2023-04-20T07:14:24.460Z,45.30
2023-04-20T07:15:24.601Z,55.80
2023-04-20T07:16:23.955Z,41.80
2023-04-20T07:17:23.961Z,46.80
2023-04-20T07:18:23.899Z,32.80
2023-04-20T07:19:23.897Z,33.30
2023-04-20T07:20:23.860Z,35.90
2023-04-20T07:21:23.845Z,26.00
2023-04-20T07:22:24.836Z,37.40
2023-04-20T07:23:24.689Z,34.60
2023-04-20T07:24:23.853Z,34.50
2023-04-20T07:25:25.594Z,31.60
2023-04-20T07:26:24.659Z,37.20
2023-04-20T07:27:23.771Z,24.30
2023-04-20T07:28:23.782Z,21.70
2023-04-20T07:29:23.775Z,41.50
2023-04-20T07:30:23.894Z,36.40
2023-04-20T07:31:23.819Z,39.10
2023-04-20T07:32:23.969Z,35.00
2023-04-20T07:33:23.825Z,29.20
2023-04-20T07:34:23.793Z,45.40
2023-04-20T07:35:23.669Z,30.90
2023-04-20T07:36:23.634Z,28.40
2023-04-20T07:37:25.817Z,28.60
2023-04-20T07:38:23.581Z,34.90
2023-04-20T07:39:23.547Z,26.80
2023-04-20T07:40:23.782Z,24.90
2023-04-20T07:41:23.548Z,31.20
2023-04-20T07:42:23.540Z,26.40
2023-04-20T07:43:23.497Z,25.00
2023-04-20T07:44:23.488Z,28.20
2023-04-20T07:45:23.515Z,30.50
2023-04-20T07:46:23.598Z,29.30
2023-04-20T07:47:24.450Z,40.40
2023-04-20T07:48:23.460Z,31.00
2023-04-20T07:49:23.417Z,28.70
2023-04-20T07:50:23.417Z,34.10
2023-04-20T07:51:23.393Z,29.20
2023-04-20T07:52:24.242Z,26.60
2023-04-20T07:53:23.424Z,23.40
2023-04-20T07:54:23.352Z,28.80
2023-04-20T07:55:23.370Z,31.10
2023-04-20T07:56:23.335Z,26.00
2023-04-20T07:57:23.293Z,30.50
2023-04-20T07:58:23.317Z,19.60
2023-04-20T07:59:23.278Z,30.10
2023-04-20T08:00:23.285Z,33.60
2023-04-20T08:01:23.549Z,24.80
2023-04-20T08:02:23.375Z,36.50
2023-04-20T08:03:23.408Z,23.80
2023-04-20T08:04:23.775Z,35.60
2023-04-20T08:05:23.321Z,22.40
2023-04-20T08:06:23.284Z,29.60
2023-04-20T08:07:23.246Z,20.50
2023-04-20T08:08:23.186Z,33.10
2023-04-20T08:09:23.144Z,21.70
2023-04-20T08:10:23.112Z,36.70
2023-04-20T08:11:23.527Z,31.20
2023-04-20T08:12:23.119Z,24.00
2023-04-20T08:13:23.116Z,24.50
2023-04-20T08:14:23.096Z,19.00
2023-04-20T08:15:23.069Z,34.50
2023-04-20T08:16:24.039Z,27.20
2023-04-20T08:17:23.060Z,37.40
2023-04-20T08:18:23.591Z,45.90
2023-04-20T08:19:23.205Z,35.20
2023-04-20T08:20:23.006Z,25.00
2023-04-20T08:21:25.359Z,21.30
2023-04-20T08:22:23.909Z,40.20
2023-04-20T08:23:22.958Z,30.70
2023-04-20T08:24:22.950Z,25.10
2023-04-20T08:25:24.638Z,26.00
2023-04-20T08:26:22.878Z,23.20
2023-04-20T08:27:22.898Z,17.40
2023-04-20T08:28:33.272Z,19.80
2023-04-20T08:29:23.841Z,32.80
2023-04-20T08:30:23.515Z,27.00
2023-04-20T08:31:23.609Z,19.60
2023-04-20T08:32:23.716Z,25.30
2023-04-20T08:33:23.600Z,26.30
2023-04-20T08:34:23.767Z,25.40
2023-04-20T08:35:22.999Z,37.90
2023-04-20T08:36:22.811Z,28.20
2023-04-20T08:37:22.792Z,24.20
2023-04-20T08:38:32.818Z,39.50
2023-04-20T08:39:23.739Z,25.40
2023-04-20T08:40:23.805Z,30.50
2023-04-20T08:41:22.960Z,34.70
2023-04-20T08:42:23.234Z,32.50
2023-04-20T08:43:23.691Z,33.80
2023-04-20T08:44:23.033Z,27.30
2023-04-20T08:45:22.669Z,20.20
2023-04-20T08:46:22.766Z,24.10
2023-04-20T08:47:23.653Z,28.70
2023-04-20T08:48:24.003Z,23.50
2023-04-20T08:49:22.658Z,23.20
2023-04-20T08:50:22.756Z,20.00
2023-04-20T08:51:22.714Z,19.60
2023-04-20T08:52:22.839Z,21.20
2023-04-20T08:53:22.695Z,20.10
2023-04-20T08:54:24.300Z,20.30
2023-04-20T08:55:22.479Z,23.40
2023-04-20T08:56:22.659Z,19.60
2023-04-20T08:57:22.457Z,23.90
2023-04-20T08:58:23.259Z,18.60
2023-04-20T08:59:22.436Z,15.70
2023-04-20T09:00:22.519Z,18.80
2023-04-20T09:01:28.707Z,19.50
2023-04-20T09:02:24.291Z,17.00
2023-04-20T09:03:23.482Z,23.40
2023-04-20T09:04:22.960Z,23.40
2023-04-20T09:05:22.763Z,23.40
2023-04-20T09:06:23.363Z,29.40
2023-04-20T09:07:22.315Z,30.10
2023-04-20T09:08:22.432Z,27.90
2023-04-20T09:09:22.342Z,16.00
2023-04-20T09:10:22.417Z,22.70
2023-04-20T09:11:22.238Z,20.00
2023-04-20T09:12:22.845Z,27.20
2023-04-20T09:13:22.308Z,23.30
2023-04-20T09:14:22.272Z,25.40
2023-04-20T09:15:22.337Z,31.60
2023-04-20T09:16:22.262Z,26.20
2023-04-20T09:17:22.351Z,16.40
2023-04-20T09:18:22.181Z,19.90
2023-04-20T09:19:22.241Z,15.50
2023-04-20T09:20:22.249Z,19.40
2023-04-20T09:21:22.109Z,17.90
2023-04-20T09:22:22.159Z,22.80
2023-04-20T09:23:22.172Z,18.40
2023-04-20T09:24:23.075Z,17.90
2023-04-20T09:25:22.124Z,16.40
2023-04-20T09:26:22.097Z,18.50
2023-04-20T09:27:22.208Z,25.00
2023-04-20T09:28:22.183Z,19.10
2023-04-20T09:29:22.081Z,24.90
2023-04-20T09:30:22.026Z,27.80
2023-04-20T09:31:22.310Z,25.80
2023-04-20T09:32:23.041Z,14.30
2023-04-20T09:33:22.681Z,23.80
2023-04-20T09:34:21.987Z,16.10
2023-04-20T09:35:21.897Z,24.20
2023-04-20T09:36:22.695Z,19.80
2023-04-20T09:37:22.110Z,23.30
2023-04-20T09:38:22.006Z,24.60
2023-04-20T09:39:21.870Z,16.60
2023-04-20T09:40:22.033Z,25.90
2023-04-20T09:41:21.850Z,16.70
2023-04-20T09:42:21.899Z,19.50
2023-04-20T09:43:21.982Z,14.80
2023-04-20T09:44:22.674Z,12.70
2023-04-20T09:45:21.793Z,14.40
2023-04-20T09:46:22.269Z,15.60
2023-04-20T09:47:21.887Z,11.20
2023-04-20T09:48:21.830Z,14.80
2023-04-20T09:49:22.382Z,16.30
2023-04-20T09:50:28.981Z,11.20
2023-04-20T09:51:22.688Z,13.80
2023-04-20T09:52:21.709Z,13.90
2023-04-20T09:53:21.683Z,13.50
2023-04-20T09:54:21.710Z,9.40
2023-04-20T09:55:22.231Z,13.50
2023-04-20T09:56:21.681Z,15.80
2023-04-20T09:57:22.451Z,11.80
2023-04-20T09:58:21.956Z,15.20
2023-04-20T09:59:22.515Z,14.70
2023-04-20T10:00:22.442Z,16.30
2023-04-20T10:01:21.999Z,13.40
2023-04-20T10:02:21.727Z,12.80
2023-04-20T10:03:22.563Z,11.40
2023-04-20T10:04:22.033Z,15.70
2023-04-20T10:05:21.652Z,14.20
2023-04-20T10:06:21.572Z,11.90
2023-04-20T10:07:21.676Z,12.60
2023-04-20T10:08:21.472Z,14.00
2023-04-20T10:09:21.698Z,12.90
2023-04-20T10:10:21.710Z,12.00
2023-04-20T10:11:21.475Z,16.60
2023-04-20T10:12:21.519Z,14.30
2023-04-20T10:13:22.441Z,11.80
2023-04-20T10:14:21.428Z,13.40
2023-04-20T10:15:22.251Z,14.10
2023-04-20T10:16:21.915Z,12.70
2023-04-20T10:17:21.453Z,13.50
2023-04-20T10:18:21.688Z,12.90
2023-04-20T10:19:21.364Z,14.40
2023-04-20T10:20:21.313Z,14.50
2023-04-20T10:21:21.631Z,11.30
2023-04-20T10:22:21.323Z,15.60
2023-04-20T10:23:22.047Z,12.00
2023-04-20T10:24:21.844Z,9.30
2023-04-20T10:25:21.696Z,13.00
2023-04-20T10:26:21.783Z,17.40
2023-04-20T10:27:21.630Z,12.10
2023-04-20T10:28:21.407Z,11.90
2023-04-20T10:29:21.223Z,12.60
2023-04-20T10:30:21.637Z,10.20
2023-04-20T10:31:21.166Z,9.50
2023-04-20T10:32:21.181Z,9.90
2023-04-20T10:33:21.633Z,14.30
2023-04-20T10:34:21.646Z,11.60
2023-04-20T10:35:21.287Z,11.70
2023-04-20T10:36:21.046Z,12.20
2023-04-20T10:37:21.140Z,10.20
2023-04-20T10:38:21.683Z,10.20
2023-04-20T10:39:21.328Z,13.60
2023-04-20T10:40:20.984Z,12.60
2023-04-20T10:41:21.079Z,12.30
2023-04-20T10:42:21.443Z,13.20
2023-04-20T10:43:21.660Z,8.60
2023-04-20T10:44:20.994Z,12.50
2023-04-20T10:45:20.983Z,10.20
2023-04-20T10:46:20.951Z,11.00
2023-04-20T10:47:21.024Z,10.00
2023-04-20T10:48:20.910Z,10.10
2023-04-20T10:49:20.932Z,9.50
2023-04-20T10:50:21.748Z,8.50
2023-04-20T10:51:20.948Z,11.70
2023-04-20T10:52:21.809Z,9.20
2023-04-20T10:53:21.684Z,9.80
2023-04-20T10:54:20.837Z,12.40
2023-04-20T10:55:20.932Z,9.10
2023-04-20T10:56:20.790Z,10.50
2023-04-20T10:57:20.963Z,11.30
2023-04-20T10:58:21.719Z,10.80
2023-04-20T10:59:21.191Z,10.90
2023-04-20T11:00:20.781Z,12.50
2023-04-20T11:01:20.976Z,10.40
2023-04-20T11:02:21.793Z,10.20
2023-04-20T11:03:20.767Z,11.60
2023-04-20T11:04:20.938Z,14.10
2023-04-20T11:05:21.025Z,11.30
2023-04-20T11:06:21.050Z,9.50
2023-04-20T11:07:20.696Z,9.70
2023-04-20T11:08:20.602Z,13.00
2023-04-20T11:09:20.588Z,9.70
2023-04-20T11:10:20.651Z,9.70
2023-04-20T11:11:20.625Z,9.20
2023-04-20T11:12:20.585Z,8.50
2023-04-20T11:13:20.536Z,10.10
2023-04-20T11:14:20.535Z,9.60
2023-04-20T11:15:20.538Z,10.20
2023-04-20T11:16:21.304Z,9.90
2023-04-20T11:17:20.671Z,11.00
2023-04-20T11:18:20.474Z,11.90
2023-04-20T11:19:20.439Z,13.70
2023-04-20T11:20:20.471Z,12.60
2023-04-20T11:21:20.399Z,14.10
2023-04-20T11:22:20.423Z,12.40
2023-04-20T11:23:20.376Z,12.50
2023-04-20T11:24:20.346Z,11.70
2023-04-20T11:25:20.376Z,11.90
2023-04-20T11:26:20.386Z,10.60
2023-04-20T11:27:20.604Z,10.30
2023-04-20T11:28:20.315Z,13.80
2023-04-20T11:29:20.482Z,10.60
2023-04-20T11:30:20.283Z,12.20
2023-04-20T11:31:20.321Z,13.30
2023-04-20T11:32:20.761Z,10.60
2023-04-20T11:33:20.381Z,14.00
2023-04-20T11:34:21.073Z,10.90
2023-04-20T11:35:20.248Z,10.80
2023-04-20T11:36:20.198Z,10.20
2023-04-20T11:37:20.209Z,10.30
2023-04-20T11:38:20.218Z,11.00
2023-04-20T11:39:20.178Z,9.70
2023-04-20T11:40:20.139Z,18.40
2023-04-20T11:41:20.113Z,13.30
2023-04-20T11:42:20.566Z,12.00
2023-04-20T11:43:20.601Z,11.70
2023-04-20T11:44:20.061Z,13.00
2023-04-20T11:45:20.102Z,11.40
2023-04-20T11:46:20.138Z,11.10
2023-04-20T11:47:20.125Z,13.40
2023-04-20T11:48:20.020Z,11.70
2023-04-20T11:49:20.165Z,15.70
2023-04-20T11:50:20.012Z,12.90
2023-04-20T11:51:21.015Z,16.40
2023-04-20T11:52:19.982Z,15.30
2023-04-20T11:53:19.963Z,14.40
2023-04-20T11:54:19.974Z,19.70
2023-04-20T11:55:20.006Z,18.10
2023-04-20T11:56:19.956Z,14.80
2023-04-20T11:57:19.905Z,19.50
2023-04-20T11:58:19.894Z,14.90
2023-04-20T11:59:20.526Z,17.40
2023-04-20T12:00:19.879Z,15.20
2023-04-20T12:01:20.789Z,19.20
2023-04-20T12:02:19.944Z,12.40
2023-04-20T12:03:20.695Z,14.70
2023-04-20T12:04:20.305Z,15.10
2023-04-20T12:05:19.812Z,15.10
2023-04-20T12:06:19.792Z,17.70
2023-04-20T12:07:19.783Z,16.80
2023-04-20T12:08:19.757Z,17.10
2023-04-20T12:09:20.077Z,20.40
2023-04-20T12:10:19.716Z,19.80
2023-04-20T12:11:19.777Z,20.60
2023-04-20T12:12:19.696Z,20.10
2023-04-20T12:13:19.724Z,17.50
2023-04-20T12:14:19.754Z,26.10
2023-04-20T12:15:19.670Z,20.40
2023-04-20T12:16:19.647Z,22.10
2023-04-20T12:17:19.763Z,20.70
2023-04-20T12:18:19.613Z,24.20
2023-04-20T12:19:19.876Z,27.90
2023-04-20T12:20:19.667Z,27.70
2023-04-20T12:21:19.597Z,26.10
2023-04-20T12:22:19.608Z,20.40
2023-04-20T12:23:19.568Z,17.70
2023-04-20T12:24:20.396Z,19.70
2023-04-20T12:25:19.588Z,19.10
2023-04-20T12:26:19.542Z,23.50
2023-04-20T12:27:19.483Z,20.60
2023-04-20T12:28:19.461Z,18.30
2023-04-20T12:29:20.733Z,24.70
2023-04-20T12:30:19.462Z,27.80
2023-04-20T12:31:20.269Z,28.20
2023-04-20T12:32:19.450Z,41.40
2023-04-20T12:33:19.438Z,33.70
2023-04-20T12:34:19.478Z,53.50
2023-04-20T12:35:19.404Z,38.70
2023-04-20T12:36:19.391Z,41.20
2023-04-20T12:37:19.366Z,24.20
2023-04-20T12:38:19.365Z,36.50
2023-04-20T12:39:19.837Z,40.40
2023-04-20T12:40:19.293Z,43.60
2023-04-20T12:41:19.327Z,35.30
2023-04-20T12:42:19.269Z,32.30
2023-04-20T12:43:19.313Z,30.00
2023-04-20T12:44:19.856Z,52.80
2023-04-20T12:45:19.303Z,38.60
2023-04-20T12:46:19.308Z,33.40
2023-04-20T12:47:19.205Z,25.40
2023-04-20T12:48:19.206Z,25.30
2023-04-20T12:49:19.383Z,39.00
2023-04-20T12:50:19.201Z,40.30
2023-04-20T12:51:20.079Z,28.20
2023-04-20T12:52:19.160Z,19.40
2023-04-20T12:53:19.913Z,20.50
2023-04-20T12:54:19.886Z,19.30
2023-04-20T12:55:19.111Z,22.50
2023-04-20T12:56:19.872Z,27.30